Time;durP1;ratioP1;P1;durP2;ratioP2;P2;SDS_P1;SDS_P2;PMS_P1;PMS_P2;Temp;Humidity;BMP_temperature;BMP_pressure;BME280_temperature;BME280_humidity;BME280_pressure;Samples;Min_cycle;Max_cycle;Signal;HPM_P1;HPM_P2
2023/11/25 00:00:41;;;;;;;3.60;2.93;;;3.10;99.90;;;3.33;100.00;96961.81;10206419;28;20305;-64
2023/11/25 00:05:44;;;;;;;3.03;2.73;;;3.10;99.90;;;3.31;100.00;96973.47;10204950;28;20262;-65
2023/11/25 00:10:48;;;;;;;6.70;3.37;;;3.00;99.90;;;3.17;100.00;96959.88;10206026;28;20229;-65
2023/11/25 00:15:54;;;;;;;3.13;2.63;;;2.90;99.90;;;3.05;100.00;96974.16;10195889;28;20655;-66
2023/11/25 00:20:57;;;;;;;2.87;2.37;;;2.80;99.90;;;3.13;100.00;96978.97;10194361;28;20233;-66
2023/11/25 00:26:01;;;;;;;3.73;3.03;;;2.80;99.90;;;3.04;100.00;96982.50;10207296;28;20260;-66
2023/11/25 00:31:05;;;;;;;4.50;3.03;;;2.70;99.90;;;2.95;100.00;96985.25;10204250;28;20306;-65
2023/11/25 00:36:09;;;;;;;3.20;2.90;;;2.60;99.90;;;2.99;100.00;96989.72;10209913;28;20243;-64
2023/11/25 00:41:12;;;;;;;4.33;3.00;;;2.70;99.90;;;2.96;100.00;97004.66;10206649;28;20231;-66
2023/11/25 00:46:17;;;;;;;3.10;2.90;;;2.60;99.90;;;2.89;100.00;97003.34;10220482;28;20237;-65
2023/11/25 00:51:23;;;;;;;3.03;2.83;;;2.50;99.90;;;2.90;100.00;97019.34;10219014;28;20265;-65
2023/11/25 00:56:27;;;;;;;3.87;3.30;;;2.50;99.90;;;2.87;100.00;97046.91;10225017;28;20305;-66
2023/11/25 01:01:31;;;;;;;3.60;3.30;;;2.50;99.90;;;2.85;100.00;97061.91;10216917;28;20295;-66
2023/11/25 01:06:35;;;;;;;4.13;3.73;;;2.40;99.90;;;2.85;100.00;97068.59;10206052;28;20315;-65
2023/11/25 01:11:38;;;;;;;4.40;3.40;;;2.50;99.90;;;2.65;100.00;97085.66;10200412;28;20739;-66
2023/11/25 01:16:43;;;;;;;3.33;3.03;;;2.40;99.90;;;2.57;100.00;97099.34;10215897;28;20230;-64
2023/11/25 01:21:46;;;;;;;3.20;3.00;;;2.30;99.90;;;2.66;100.00;97107.63;10206614;28;20249;-64
2023/11/25 01:26:50;;;;;;;3.37;3.07;;;2.40;99.90;;;2.69;100.00;97124.63;10196731;28;20313;-65
2023/11/25 01:31:54;;;;;;;3.10;2.90;;;2.40;99.90;;;2.83;100.00;97143.31;10205444;28;20375;-65
2023/11/25 01:36:57;;;;;;;3.40;3.10;;;2.50;99.90;;;2.55;100.00;97147.91;10195158;28;20609;-65
2023/11/25 01:42:00;;;;;;;2.97;2.57;;;2.30;99.90;;;2.65;100.00;97138.63;10202690;28;20471;-65
2023/11/25 01:47:05;;;;;;;4.53;3.17;;;2.30;99.90;;;2.73;100.00;97138.34;10203561;28;20225;-65
2023/11/25 01:52:10;;;;;;;6.37;3.60;;;2.30;99.90;;;2.81;100.00;97137.28;10195481;28;20233;-65
2023/11/25 01:57:16;;;;;;;4.63;3.10;;;2.40;99.90;;;2.69;100.00;97147.34;10203280;28;20234;-65
2023/11/25 02:02:26;;;;;;;5.33;3.10;;;2.30;99.90;;;2.78;100.00;97154.72;10202239;28;20621;-65
2023/11/25 02:07:30;;;;;;;7.47;3.43;;;2.40;99.90;;;2.65;100.00;97173.09;10209007;28;20261;-65
2023/11/25 02:12:34;;;;;;;3.33;2.63;;;2.30;99.90;;;2.58;100.00;97184.38;10199052;28;20626;-65
2023/11/25 02:17:41;;;;;;;4.23;3.30;;;2.30;99.90;;;2.46;100.00;97201.06;10205231;28;20578;-65
2023/11/25 02:22:58;;;;;;;6.33;2.80;;;2.10;99.90;;;2.45;100.00;97214.44;10208437;28;20287;-64
2023/11/25 02:28:01;;;;;;;4.83;2.53;;;2.20;99.90;;;2.55;100.00;97219.44;10195895;28;20261;-65
2023/11/25 02:33:06;;;;;;;3.03;2.80;;;2.20;99.90;;;2.67;100.00;97222.91;10208627;28;20234;-65
2023/11/25 02:38:11;;;;;;;5.40;3.53;;;2.30;99.90;;;2.56;100.00;97248.94;10195662;28;20304;-65
2023/11/25 02:43:16;;;;;;;4.53;3.17;;;2.20;99.90;;;2.61;100.00;97247.66;10207374;28;20602;-64
2023/11/25 02:48:20;;;;;;;5.13;3.10;;;2.20;99.90;;;2.65;100.00;97259.72;10221569;28;20587;-65
2023/11/25 02:53:24;;;;;;;5.03;3.13;;;2.20;99.90;;;2.41;100.00;97261.25;10199960;28;20255;-63
2023/11/25 02:58:27;;;;;;;3.57;2.97;;;2.10;99.90;;;2.23;100.00;97263.19;10216807;28;20267;-64
2023/11/25 03:03:32;;;;;;;3.73;3.43;;;1.90;99.90;;;2.14;100.00;97287.66;10193728;28;20244;-65
2023/11/25 03:08:38;;;;;;;3.77;3.03;;;1.80;99.90;;;2.32;100.00;97272.22;10199122;28;20229;-66
2023/11/25 03:13:42;;;;;;;3.40;3.10;;;2.00;99.90;;;2.35;100.00;97288.50;10192486;28;20607;-64
2023/11/25 03:18:45;;;;;;;4.80;3.60;;;2.00;99.90;;;2.30;100.00;97286.38;10180546;28;20228;-65
2023/11/25 03:23:50;;;;;;;6.17;3.27;;;1.90;99.90;;;2.25;100.00;97309.56;10203290;28;20243;-65
2023/11/25 03:28:53;;;;;;;4.20;3.20;;;1.80;99.90;;;2.23;100.00;97313.63;10190993;28;20239;-66
2023/11/25 03:33:56;;;;;;;3.77;3.13;;;1.80;99.90;;;2.25;100.00;97314.59;10219854;28;20255;-66
2023/11/25 03:39:00;;;;;;;4.63;3.63;;;1.80;99.90;;;2.14;100.00;97322.06;10219363;28;20236;-66
2023/11/25 03:44:04;;;;;;;7.57;3.63;;;1.70;99.90;;;2.31;100.00;97330.97;10201519;28;20263;-64
2023/11/25 03:49:09;;;;;;;6.07;3.80;;;1.80;99.90;;;2.31;100.00;97336.91;10201208;28;20237;-65
2023/11/25 03:54:14;;;;;;;5.60;3.87;;;1.90;99.90;;;2.40;100.00;97342.66;10202351;28;20322;-65
2023/11/25 03:59:17;;;;;;;6.27;3.80;;;1.90;99.90;;;2.32;100.00;97342.81;10201559;28;20239;-65
2023/11/25 04:04:20;;;;;;;4.67;3.83;;;1.90;99.90;;;2.43;100.00;97354.66;10211237;28;20233;-65
2023/11/25 04:09:26;;;;;;;4.50;3.50;;;1.90;99.90;;;2.48;100.00;97350.84;10207161;28;20336;-65
2023/11/25 04:14:29;;;;;;;4.97;4.50;;;2.00;99.90;;;2.36;100.00;97354.94;10215708;28;20767;-65
2023/11/25 04:19:32;;;;;;;5.97;3.83;;;1.90;99.90;;;2.13;100.00;97361.53;10206564;28;20246;-65
2023/11/25 04:24:38;;;;;;;7.80;4.10;;;1.70;99.90;;;2.16;100.00;97371.84;10210194;28;20272;-66
2023/11/25 04:29:43;;;;;;;6.27;4.20;;;1.70;99.90;;;2.12;100.00;97377.41;10207759;28;20323;-66
2023/11/25 04:34:46;;;;;;;5.03;4.20;;;1.60;99.90;;;1.97;100.00;97383.69;10214403;28;20564;-64
2023/11/25 04:39:50;;;;;;;4.57;4.10;;;1.50;99.90;;;2.08;100.00;97398.06;10204437;28;20233;-65
2023/11/25 04:44:53;;;;;;;5.53;4.40;;;1.70;99.90;;;2.01;100.00;97400.84;10199699;28;20239;-66
2023/11/25 04:49:57;;;;;;;5.07;4.60;;;1.60;99.90;;;2.04;100.00;97406.16;10199743;28;20681;-64
2023/11/25 04:55:01;;;;;;;6.10;4.47;;;1.60;99.90;;;2.19;100.00;97416.59;10200207;28;20264;-66
2023/11/25 05:00:09;;;;;;;6.40;4.47;;;1.70;99.90;;;2.20;100.00;97421.78;10204919;28;20232;-65
2023/11/25 05:05:13;;;;;;;5.13;4.57;;;1.80;99.90;;;2.36;100.00;97420.50;10196536;28;20255;-65
2023/11/25 05:10:20;;;;;;;6.23;4.83;;;1.90;99.90;;;2.21;100.00;97426.06;10198959;28;20716;-64
2023/11/25 05:15:24;;;;;;;6.67;4.73;;;1.80;99.90;;;2.16;100.00;97432.34;10201403;28;20299;-64
2023/11/25 05:20:28;;;;;;;6.20;4.80;;;1.70;99.90;;;2.08;100.00;97432.47;10194960;28;20582;-65
2023/11/25 05:25:32;;;;;;;4.90;4.50;;;1.70;99.90;;;2.10;100.00;97434.38;10208140;28;20635;-65
2023/11/25 05:30:35;;;;;;;5.70;5.10;;;1.60;99.90;;;2.09;100.00;97425.06;10200910;28;20232;-64
2023/11/25 05:35:39;;;;;;;13.10;11.70;;;1.60;99.90;;;2.08;100.00;97425.78;10199572;28;20712;-64
2023/11/25 05:40:43;;;;;;;7.37;5.30;;;1.60;99.90;;;1.99;100.00;97430.97;10195075;28;20229;-65
2023/11/25 05:45:47;;;;;;;8.90;6.50;;;1.50;99.90;;;1.96;100.00;97429.84;10193364;28;20240;-65
2023/11/25 05:50:50;;;;;;;7.33;5.90;;;1.50;99.90;;;2.07;100.00;97435.75;10207710;28;20891;-65
2023/11/25 05:55:55;;;;;;;11.40;8.40;;;1.50;99.90;;;2.08;100.00;97451.00;10195280;28;20225;-67
2023/11/25 06:00:59;;;;;;;11.57;8.40;;;1.60;99.90;;;2.10;100.00;97448.63;10188126;28;20621;-68
2023/11/25 06:06:07;;;;;;;10.70;6.60;;;1.60;99.90;;;1.92;100.00;97450.50;10197206;28;20248;-66
2023/11/25 06:11:20;;;;;;;8.03;5.33;;;1.40;99.90;;;1.91;100.00;97458.78;10195478;28;20288;-68
2023/11/25 06:16:24;;;;;;;8.17;6.00;;;1.40;99.90;;;1.88;100.00;97463.59;10189018;28;20243;-67
2023/11/25 06:21:27;;;;;;;7.20;5.40;;;1.40;99.90;;;1.82;100.00;97453.00;10193158;28;20237;-66
2023/11/25 06:26:32;;;;;;;6.63;5.20;;;1.30;99.90;;;1.85;100.00;97463.31;10196877;28;20225;-67
2023/11/25 06:31:36;;;;;;;7.43;5.20;;;1.40;99.90;;;1.85;100.00;97465.84;10197438;28;20233;-66
2023/11/25 06:36:39;;;;;;;6.40;4.87;;;1.40;99.90;;;1.85;100.00;97473.41;10198149;28;20225;-66
2023/11/25 06:41:48;;;;;;;7.53;4.67;;;1.40;99.90;;;1.86;100.00;97472.63;10191518;28;20376;-66
2023/11/25 06:46:52;;;;;;;4.87;4.40;;;1.40;99.90;;;1.90;100.00;97469.66;10199424;28;20611;-65
2023/11/25 06:51:55;;;;;;;7.83;4.50;;;1.40;99.90;;;1.88;100.00;97483.75;10188205;28;20681;-67
2023/11/25 06:56:59;;;;;;;9.70;4.53;;;1.40;99.90;;;1.93;100.00;97478.34;10180859;28;20232;-65
2023/11/25 07:02:03;;;;;;;7.00;5.50;;;1.50;99.90;;;2.04;100.00;97476.72;10182500;28;20233;-72
2023/11/25 07:07:07;;;;;;;5.53;4.80;;;1.60;99.90;;;2.00;100.00;97489.78;10187044;28;20237;-66
2023/11/25 07:12:15;;;;;;;6.00;4.13;;;1.50;99.90;;;1.97;100.00;97481.97;10180522;28;20233;-67
2023/11/25 07:17:18;;;;;;;5.83;4.60;;;1.50;99.90;;;2.03;100.00;97469.88;10182416;28;20386;-66
2023/11/25 07:22:22;;;;;;;11.93;8.37;;;1.50;99.90;;;2.05;100.00;97472.56;10178934;28;20233;-66
2023/11/25 07:27:26;;;;;;;7.37;5.07;;;1.50;99.90;;;1.98;100.00;97486.28;10187473;28;20958;-64
2023/11/25 07:32:29;;;;;;;10.10;5.77;;;1.40;99.90;;;1.99;100.00;97477.97;10192607;28;22004;-66
2023/11/25 07:37:33;;;;;;;5.63;5.10;;;1.50;99.90;;;1.90;100.00;97475.56;10186367;28;20225;-67
2023/11/25 07:42:38;;;;;;;6.70;5.17;;;1.40;99.90;;;1.98;100.00;97471.16;10180539;28;20339;-66
2023/11/25 07:47:42;;;;;;;10.57;5.90;;;1.40;99.90;;;2.07;100.00;97476.09;10183146;28;20237;-67
2023/11/25 07:52:45;;;;;;;8.80;5.37;;;1.50;99.90;;;2.28;100.00;97479.50;10186096;28;20647;-67
2023/11/25 07:57:50;;;;;;;8.43;5.90;;;1.80;99.90;;;2.55;100.00;97484.28;10181974;28;20335;-66
2023/11/25 08:02:55;;;;;;;6.97;4.77;;;2.10;99.90;;;2.71;100.00;97482.22;10186185;28;20233;-67
2023/11/25 08:07:59;;;;;;;11.63;7.17;;;2.30;99.90;;;3.03;100.00;97490.63;10187070;28;20318;-67
2023/11/25 08:13:03;;;;;;;7.20;4.80;;;2.60;99.90;;;3.29;100.00;97495.19;10179097;28;20316;-66
2023/11/25 08:18:07;;;;;;;8.60;5.20;;;2.70;99.90;;;3.55;100.00;97497.28;10193846;28;20229;-66
2023/11/25 08:23:10;;;;;;;5.90;5.20;;;3.00;99.90;;;4.12;100.00;97486.41;10197164;28;20762;-67
2023/11/25 08:28:15;;;;;;;6.43;4.23;;;3.60;99.90;;;4.54;100.00;97475.22;10207612;28;20235;-68
2023/11/25 08:33:18;;;;;;;5.10;4.07;;;3.90;99.90;;;4.57;100.00;97483.03;10198849;28;21993;-66
2023/11/25 08:38:21;;;;;;;6.60;4.00;;;4.00;99.90;;;4.39;100.00;97490.16;10202232;28;20240;-69
2023/11/25 08:43:26;;;;;;;8.33;4.87;;;3.90;99.90;;;4.27;100.00;97493.53;10199230;28;20311;-65
2023/11/25 08:48:30;;;;;;;8.90;4.57;;;3.60;99.90;;;4.26;100.00;97491.78;10208650;28;20245;-65
2023/11/25 08:53:33;;;;;;;5.47;4.00;;;3.50;99.90;;;4.09;100.00;97501.38;10214577;28;20237;-65
2023/11/25 08:58:38;;;;;;;4.93;4.30;;;3.50;99.90;;;3.96;100.00;97505.50;10196472;28;20687;-64
2023/11/25 09:03:41;;;;;;;5.60;4.07;;;3.40;99.90;;;4.03;100.00;97502.69;10204097;28;20312;-64
2023/11/25 09:08:45;;;;;;;7.67;4.13;;;3.50;99.90;;;4.18;100.00;97492.84;10197775;28;20233;-65
2023/11/25 09:13:50;;;;;;;6.93;3.90;;;3.40;99.90;;;4.32;100.00;97498.94;10229827;28;20260;-65
2023/11/25 09:18:53;;;;;;;4.90;3.80;;;3.50;99.90;;;4.34;100.00;97492.34;10205170;28;20260;-65
2023/11/25 09:23:59;;;;;;;6.47;5.13;;;3.60;99.90;;;4.39;100.00;97490.16;10200030;28;20233;-64
2023/11/25 09:29:04;;;;;;;7.50;3.57;;;3.70;99.90;;;4.51;100.00;97488.53;10197361;28;20229;-65
2023/11/25 09:34:08;;;;;;;5.87;4.60;;;3.80;99.90;;;4.63;100.00;97484.38;10198736;28;20225;-66
2023/11/25 09:39:11;;;;;;;5.63;4.03;;;4.00;99.90;;;4.64;100.00;97482.75;10209378;28;20236;-65
2023/11/25 09:44:18;;;;;;;7.40;3.80;;;4.00;99.90;;;4.72;100.00;97492.66;10209395;28;20232;-65
2023/11/25 09:49:21;;;;;;;6.87;4.10;;;4.00;99.90;;;4.75;100.00;97479.34;10188886;28;20274;-65
2023/11/25 09:54:24;;;;;;;7.77;4.17;;;4.00;99.90;;;4.78;100.00;97477.03;10193533;28;20231;-65
2023/11/25 09:59:31;;;;;;;7.30;4.00;;;4.00;99.90;;;4.67;100.00;97462.72;10195219;28;20247;-64
2023/11/25 10:04:35;;;;;;;5.57;3.83;;;4.10;99.90;;;4.54;100.00;97443.19;10195102;28;20232;-65
2023/11/25 10:09:39;;;;;;;5.73;3.50;;;4.00;99.90;;;4.94;100.00;97448.63;10197584;28;20740;-64
2023/11/25 10:14:44;;;;;;;3.37;3.07;;;4.30;99.90;;;4.86;97.77;97450.59;10195494;28;20235;-64
2023/11/25 10:19:48;;;;;;;7.80;4.83;;;4.50;99.90;;;5.30;100.00;97446.97;10193171;28;20225;-64
2023/11/25 10:24:52;;;;;;;6.13;3.60;;;4.70;99.90;;;5.36;100.00;97434.72;10194387;28;20264;-65
2023/11/25 10:30:01;;;;;;;11.10;5.80;;;4.90;99.90;;;5.46;95.34;97418.47;10196504;28;20244;-65
2023/11/25 10:35:07;;;;;;;7.70;5.00;;;4.90;99.90;;;5.28;95.84;97423.16;10196519;28;20225;-65
2023/11/25 10:40:16;;;;;;;6.03;3.57;;;4.80;99.90;;;5.30;97.59;97414.03;10192974;28;22203;-64
2023/11/25 10:45:26;;;;;;;7.10;4.30;;;4.70;99.90;;;5.34;96.44;97393.19;10191507;28;22258;-64
2023/11/25 10:50:31;;;;;;;7.10;3.90;;;4.80;99.90;;;5.57;92.82;97393.09;10184237;28;20232;-66
2023/11/25 10:55:36;;;;;;;10.07;5.63;;;5.00;99.90;;;5.72;91.62;97389.84;10193745;28;20248;-66
2023/11/25 11:00:41;;;;;;;11.47;5.87;;;5.00;99.90;;;5.59;89.62;97380.53;10182759;28;20684;-65
2023/11/25 11:05:50;;;;;;;10.60;4.07;;;4.90;99.90;;;5.35;92.59;97369.59;10181513;28;20233;-67
2023/11/25 11:10:56;;;;;;;5.27;3.90;;;4.70;99.90;;;5.46;94.29;97372.88;10184642;28;20229;-66
2023/11/25 11:16:08;;;;;;;10.47;4.40;;;4.60;99.90;;;5.14;93.20;97380.00;10184305;28;20233;-65
2023/11/25 11:21:12;;;;;;;10.97;5.90;;;4.40;99.90;;;5.22;95.96;97360.28;10173062;28;20221;-66
2023/11/25 11:26:28;;;;;;;9.60;5.20;;;4.30;99.90;;;5.09;97.71;97360.19;10188990;28;20248;-65
2023/11/25 11:32:03;;;;;;;10.43;5.00;;;4.40;99.90;;;4.93;96.25;97350.66;10185890;28;20236;-65
2023/11/25 11:37:08;;;;;;;13.97;5.70;;;4.30;99.90;;;5.03;93.98;97329.38;10184239;28;20227;-69
2023/11/25 11:42:29;;;;;;;9.53;4.70;;;4.30;99.90;;;5.34;92.66;97323.09;10188687;28;20244;-66
2023/11/25 11:47:34;;;;;;;9.27;5.23;;;4.60;99.90;;;5.32;91.65;97324.69;10186535;28;20229;-65
2023/11/25 11:53:14;;;;;;;10.57;5.10;;;4.60;99.90;;;5.09;93.43;97314.59;10185985;28;20608;-70
2023/11/25 11:58:19;;;;;;;9.67;4.77;;;4.50;99.90;;;4.94;92.02;97319.47;10194991;28;20229;-68
2023/11/25 12:03:24;;;;;;;10.17;3.90;;;4.50;99.90;;;4.88;94.66;97332.59;10202085;28;20237;-66
2023/11/25 12:08:28;;;;;;;8.17;4.50;;;4.40;99.90;;;4.89;94.59;97339.44;10205019;28;20376;-65
2023/11/25 12:13:35;;;;;;;10.87;4.47;;;4.30;99.90;;;4.92;92.34;97338.75;10221846;28;20237;-65
2023/11/25 12:18:40;;;;;;;10.63;4.53;;;4.30;99.90;;;4.73;93.71;97341.66;10239575;28;20229;-66
2023/11/25 12:23:45;;;;;;;8.93;3.97;;;4.20;99.90;;;4.15;96.69;97352.63;10201416;28;20240;-66
2023/11/25 12:28:54;;;;;;;7.43;3.57;;;3.80;99.90;;;4.06;100.00;97361.31;10195805;28;20316;-66
2023/11/25 12:34:01;;;;;;;7.93;4.20;;;3.60;99.90;;;3.97;100.00;97350.50;10205184;28;20245;-65
2023/11/25 12:39:11;;;;;;;13.60;6.03;;;3.40;99.90;;;3.96;100.00;97341.16;10195507;28;20304;-66
2023/11/25 12:44:15;;;;;;;8.43;4.00;;;3.30;99.90;;;4.00;100.00;97335.56;10187752;29;20233;-65
2023/11/25 12:49:23;;;;;;;10.10;4.60;;;3.40;99.90;;;3.87;100.00;97332.91;10190553;29;20324;-66
2023/11/25 12:54:43;;;;;;;7.23;4.47;;;3.30;99.90;;;4.07;100.00;97330.19;10187701;28;20244;-66
2023/11/25 12:59:47;;;;;;;9.37;4.50;;;3.50;99.90;;;3.96;100.00;97335.22;10189579;29;20251;-66
2023/11/25 13:04:51;;;;;;;11.37;5.37;;;3.40;99.90;;;3.88;100.00;97329.59;10187447;28;20308;-66
2023/11/25 13:09:54;;;;;;;6.37;4.37;;;3.40;99.90;;;3.97;100.00;97327.75;10189627;29;20232;-66
2023/11/25 13:14:58;;;;;;;9.43;5.20;;;3.40;99.90;;;3.99;100.00;97326.22;10186970;29;20241;-66
2023/11/25 13:20:03;;;;;;;13.27;5.20;;;3.50;99.90;;;4.07;100.00;97309.97;10189302;29;20324;-67
2023/11/25 13:25:07;;;;;;;10.40;5.97;;;3.50;99.90;;;4.01;100.00;97317.09;10195420;28;20237;-66
2023/11/25 13:30:11;;;;;;;7.80;5.13;;;3.40;99.90;;;3.89;100.00;97315.31;10195154;28;20229;-66
2023/11/25 13:35:16;;;;;;;10.93;5.23;;;3.30;99.90;;;3.90;100.00;97312.03;10201081;28;20675;-66
2023/11/25 13:40:19;;;;;;;8.50;5.10;;;3.30;99.90;;;3.92;100.00;97306.34;10193203;28;20229;-66
2023/11/25 13:45:23;;;;;;;8.73;4.50;;;3.30;99.90;;;3.81;100.00;97304.66;10200289;28;20260;-66
2023/11/25 13:50:28;;;;;;;9.00;5.30;;;3.30;99.90;;;3.83;100.00;97305.63;10194975;28;20240;-65
2023/11/25 13:55:36;;;;;;;9.10;7.97;;;3.20;99.90;;;3.67;100.00;97307.81;10188665;28;20243;-66
2023/11/25 14:00:40;;;;;;;9.77;5.17;;;3.20;99.90;;;3.70;100.00;97300.47;10183950;28;20243;-65
2023/11/25 14:05:46;;;;;;;7.43;4.77;;;3.20;99.90;;;3.72;100.00;97301.44;10188988;28;20712;-66
2023/11/25 14:10:49;;;;;;;9.30;4.80;;;3.30;99.90;;;3.74;100.00;97305.84;10194318;28;20236;-65
2023/11/25 14:15:52;;;;;;;8.37;4.73;;;3.30;99.90;;;3.94;100.00;97294.66;10183619;28;20739;-65
2023/11/25 14:20:57;;;;;;;9.70;6.53;;;3.40;99.90;;;3.76;100.00;97300.91;10188243;28;20807;-68
2023/11/25 14:26:00;;;;;;;6.30;4.23;;;3.20;99.90;;;3.80;100.00;97297.81;10203903;28;20241;-64
2023/11/25 14:31:05;;;;;;;8.53;4.90;;;3.30;99.90;;;3.80;100.00;97300.34;10191793;28;20237;-67
2023/11/25 14:36:12;;;;;;;5.63;4.27;;;3.30;99.90;;;3.89;100.00;97295.97;10202918;28;20720;-65
2023/11/25 14:41:22;;;;;;;10.07;5.33;;;3.40;99.90;;;3.79;100.00;97294.41;10197501;28;20997;-68
2023/11/25 14:46:25;;;;;;;8.17;5.27;;;3.40;99.90;;;3.91;100.00;97294.44;10199423;28;20314;-70
2023/11/25 14:51:30;;;;;;;9.03;6.20;;;3.50;99.90;;;3.92;100.00;97292.78;10198220;28;20343;-66
2023/11/25 14:56:33;;;;;;;7.07;6.47;;;3.50;99.90;;;3.84;100.00;97287.19;10195923;28;20233;-66
2023/11/25 15:01:37;;;;;;;6.37;5.57;;;3.40;99.90;;;3.89;100.00;97285.84;10201228;28;20229;-66
2023/11/25 15:06:41;;;;;;;7.37;5.87;;;3.50;99.90;;;3.99;100.00;97278.19;10194346;28;20245;-66
2023/11/25 15:11:45;;;;;;;8.03;5.30;;;3.50;99.90;;;4.04;100.00;97287.00;10208397;28;20713;-66
2023/11/25 15:16:48;;;;;;;8.23;5.63;;;3.60;99.90;;;4.10;100.00;97290.75;10205719;28;20327;-64
2023/11/25 15:21:53;;;;;;;6.73;5.63;;;3.60;99.90;;;3.97;100.00;97284.78;10189541;28;21261;-66
2023/11/25 15:26:56;;;;;;;8.23;5.23;;;3.50;99.90;;;3.84;100.00;97287.19;10194165;28;20236;-66
2023/11/25 15:31:59;;;;;;;8.13;5.67;;;3.40;99.90;;;3.77;100.00;97279.91;10209959;28;20730;-66
2023/11/25 15:37:04;;;;;;;8.10;5.60;;;3.40;99.90;;;3.94;100.00;97282.03;10198440;28;20642;-66
2023/11/25 15:42:08;;;;;;;11.90;6.77;;;3.50;99.90;;;3.94;100.00;97264.31;10196460;28;20229;-70
2023/11/25 15:47:11;;;;;;;9.03;6.50;;;3.50;99.90;;;4.14;100.00;97280.06;10199924;28;20229;-65
2023/11/25 15:52:15;;;;;;;8.40;7.03;;;3.60;99.90;;;4.09;100.00;97259.50;10238915;28;20226;-65
2023/11/25 15:57:19;;;;;;;10.70;6.60;;;3.60;99.90;;;4.09;100.00;97278.84;10197328;28;20229;-65
2023/11/25 16:02:23;;;;;;;7.60;5.60;;;3.60;99.90;;;4.19;100.00;97287.22;10201098;28;20237;-65
2023/11/25 16:07:28;;;;;;;6.87;5.80;;;3.80;99.90;;;4.28;100.00;97287.00;10195618;28;20243;-65
2023/11/25 16:12:32;;;;;;;8.07;6.00;;;3.80;99.90;;;4.20;100.00;97278.84;10194406;28;20233;-65
2023/11/25 16:17:35;;;;;;;7.43;5.60;;;3.80;99.90;;;4.23;100.00;97275.66;10200858;28;20783;-65
2023/11/25 16:22:40;;;;;;;5.63;5.23;;;3.80;99.90;;;4.21;100.00;97267.09;10203308;28;20356;-66
2023/11/25 16:27:43;;;;;;;6.50;4.67;;;3.70;99.90;;;4.28;100.00;97269.28;10196385;28;20237;-65
2023/11/25 16:32:47;;;;;;;5.37;4.87;;;3.80;99.90;;;4.19;100.00;97276.22;10202589;28;20748;-67
2023/11/25 16:37:51;;;;;;;7.47;5.53;;;3.70;99.90;;;4.14;100.00;97283.47;10199749;28;20240;-69
2023/11/25 16:42:56;;;;;;;7.60;6.47;;;3.70;99.90;;;4.18;100.00;97279.53;10198154;28;20237;-66
2023/11/25 16:48:00;;;;;;;5.70;5.00;;;3.70;99.90;;;4.09;100.00;97291.47;10200323;28;20729;-67
2023/11/25 16:53:05;;;;;;;5.47;4.67;;;3.70;99.90;;;4.09;100.00;97286.44;10248783;28;20303;-65
2023/11/25 16:58:08;;;;;;;4.70;4.30;;;3.60;99.90;;;4.10;100.00;97285.69;10180994;28;20252;-67
2023/11/25 17:03:11;;;;;;;4.50;4.10;;;3.70;99.90;;;3.98;100.00;97276.44;10176025;28;20245;-67
2023/11/25 17:08:16;;;;;;;5.73;5.13;;;3.60;99.90;;;3.95;100.00;97285.41;10151854;28;20245;-67
2023/11/25 17:13:19;;;;;;;4.97;4.50;;;3.60;99.90;;;4.33;100.00;97290.72;10220747;28;20419;-65
2023/11/25 17:18:23;;;;;;;6.57;5.93;;;3.80;99.90;;;4.01;100.00;97289.31;10202722;28;20780;-66
2023/11/25 17:23:27;;;;;;;6.80;5.20;;;3.70;99.90;;;4.23;100.00;97290.84;10184901;28;20236;-64
2023/11/25 17:28:30;;;;;;;5.20;4.80;;;3.70;99.90;;;4.13;100.00;97294.34;10184841;28;20613;-67
2023/11/25 17:33:33;;;;;;;5.70;5.10;;;3.70;99.90;;;4.00;100.00;97290.03;10189578;28;20241;-66
2023/11/25 17:38:38;;;;;;;6.83;5.10;;;3.60;99.90;;;4.16;100.00;97294.59;10186991;28;20229;-66
2023/11/25 17:43:41;;;;;;;4.80;4.30;;;3.70;99.90;;;4.02;100.00;97297.75;10187441;29;20790;-66
2023/11/25 17:48:44;;;;;;;6.20;3.63;;;3.60;99.90;;;4.12;100.00;97289.19;10187023;29;20229;-66
2023/11/25 17:53:49;;;;;;;5.67;4.20;;;3.70;99.90;;;4.03;100.00;97287.78;10186564;29;20240;-67
2023/11/25 17:58:52;;;;;;;4.60;4.17;;;3.70;99.90;;;4.06;100.00;97299.72;10185433;29;20229;-66
2023/11/25 18:03:57;;;;;;;4.93;4.47;;;3.60;99.90;;;3.89;100.00;97305.19;10188104;28;20233;-66
2023/11/25 18:09:01;;;;;;;6.20;5.60;;;3.50;99.90;;;3.90;100.00;97304.44;10187358;28;20229;-66
2023/11/25 18:14:04;;;;;;;5.27;4.37;;;3.50;99.90;;;4.08;100.00;97300.72;10183774;28;20233;-67
2023/11/25 18:19:10;;;;;;;8.30;5.10;;;3.60;99.90;;;3.91;100.00;97299.50;10184836;28;20246;-66
2023/11/25 18:24:15;;;;;;;6.90;4.90;;;3.50;99.90;;;4.01;100.00;97307.00;10180855;28;20317;-66
2023/11/25 18:29:18;;;;;;;5.63;5.13;;;3.60;99.90;;;3.96;100.00;97308.31;10186451;28;20237;-66
2023/11/25 18:34:21;;;;;;;7.87;5.67;;;3.60;99.90;;;3.87;100.00;97302.56;10179617;28;20622;-65
2023/11/25 18:39:28;;;;;;;8.47;5.70;;;3.50;99.90;;;3.94;100.00;97304.78;10167686;28;20224;-66
2023/11/25 18:44:31;;;;;;;5.97;4.80;;;3.50;99.90;;;3.77;100.00;97305.19;10165224;28;20229;-68
2023/11/25 18:49:34;;;;;;;5.43;4.93;;;3.40;99.90;;;3.90;100.00;97314.56;10169798;28;21085;-67
2023/11/25 18:54:39;;;;;;;5.00;4.60;;;3.50;99.90;;;3.96;100.00;97308.31;10168652;28;20225;-67
2023/11/25 18:59:45;;;;;;;6.17;5.43;;;3.50;99.90;;;3.91;100.00;97304.56;10167339;28;20229;-66
2023/11/25 19:04:48;;;;;;;8.30;5.37;;;3.50;99.90;;;3.95;100.00;97306.56;10178182;28;20747;-67
2023/11/25 19:09:53;;;;;;;7.17;6.57;;;3.50;99.90;;;3.97;100.00;97311.69;10167539;28;20351;-66
2023/11/25 19:14:59;;;;;;;7.00;6.40;;;3.60;99.90;;;3.90;100.00;97312.91;10168504;28;20676;-67
2023/11/25 19:20:04;;;;;;;7.13;5.80;;;3.50;99.90;;;3.89;100.00;97315.31;10161480;28;20236;-67
2023/11/25 19:25:11;;;;;;;8.20;6.03;;;3.50;99.90;;;3.91;100.00;97319.72;10208513;28;20249;-65
2023/11/25 19:30:16;;;;;;;7.27;5.97;;;3.50;99.90;;;4.12;100.00;97312.84;10161620;28;20225;-66
2023/11/25 19:35:19;;;;;;;6.67;5.40;;;3.60;99.90;;;4.18;100.00;97314.94;10166335;28;20606;-66
2023/11/25 19:40:23;;;;;;;6.33;5.73;;;3.70;99.90;;;4.11;100.00;97321.19;10164061;28;20229;-67
2023/11/25 19:45:26;;;;;;;7.17;5.10;;;3.70;99.90;;;4.22;100.00;97316.91;10161951;28;20237;-66
2023/11/25 19:50:30;;;;;;;5.23;4.73;;;3.70;99.90;;;4.22;100.00;97324.50;10164695;28;21000;-70
2023/11/25 19:55:34;;;;;;;6.90;5.03;;;3.80;99.90;;;4.07;100.00;97336.91;10165314;28;20244;-67
2023/11/25 20:00:37;;;;;;;5.77;5.20;;;3.80;99.90;;;4.05;100.00;97324.13;10164593;28;20721;-67
2023/11/25 20:05:55;;;;;;;5.50;4.80;;;3.70;99.90;;;4.02;100.00;97339.09;10167699;28;20244;-67
2023/11/25 20:11:02;;;;;;;7.30;6.43;;;3.60;99.90;;;4.21;100.00;97340.44;10162930;28;20252;-66
2023/11/25 20:16:06;;;;;;;5.90;5.30;;;3.80;99.90;;;4.20;100.00;97326.03;10172117;28;20611;-65
2023/11/25 20:21:09;;;;;;;7.30;6.70;;;3.80;99.90;;;4.03;100.00;97335.81;10138046;28;20240;-67
2023/11/25 20:26:14;;;;;;;6.80;6.03;;;3.70;99.90;;;4.03;100.00;97345.91;10216301;28;20239;-68
2023/11/25 20:31:18;;;;;;;8.40;6.47;;;3.70;99.90;;;4.00;100.00;97350.72;10170699;28;20327;-67
2023/11/25 20:36:21;;;;;;;7.03;5.90;;;3.60;99.90;;;4.02;100.00;97355.91;10167567;28;20239;-65
2023/11/25 20:41:25;;;;;;;7.20;6.10;;;3.60;99.90;;;4.03;100.00;97352.59;10170677;28;20225;-66
2023/11/25 20:46:28;;;;;;;7.83;6.53;;;3.60;99.90;;;4.14;100.00;97356.81;10172877;28;20244;-67
2023/11/25 20:51:32;;;;;;;6.33;5.70;;;3.60;99.90;;;4.14;100.00;97363.50;10179403;28;20233;-68
2023/11/25 20:56:37;;;;;;;6.37;5.77;;;3.70;99.90;;;3.97;100.00;97354.69;10186702;28;20240;-67
2023/11/25 21:01:40;;;;;;;7.30;5.30;;;3.60;99.90;;;4.06;100.00;97360.41;10175598;28;20237;-65
2023/11/25 21:06:43;;;;;;;5.90;5.20;;;3.70;99.90;;;3.88;100.00;97365.00;10173398;28;20690;-67
2023/11/25 21:11:47;;;;;;;6.70;5.67;;;3.60;99.90;;;3.87;100.00;97363.25;10176306;28;20595;-68
2023/11/25 21:16:51;;;;;;;5.20;4.70;;;3.50;99.90;;;3.87;100.00;97365.78;10171897;28;20244;-68
2023/11/25 21:21:54;;;;;;;6.27;5.67;;;3.50;99.90;;;3.88;100.00;97380.16;10174925;28;20234;-67